Time,TemperatureF,DewpointF,PressureIn,WindDirection,WindDirectionDegrees,WindSpeedMPH,WindSpeedGustMPH,Humidity,HourlyPrecipIn,Conditions,Clouds,dailyrainin,SoftwareType,DateUTC
2013-08-19 00:00:00,66.0,61.7,29.90,South,180,0.0,-999.0,86,0.00,,,0.00,Wunderground v.1.15,2013-08-19 07:00:00,
2013-08-19 00:05:00,66.1,61.8,29.90,South,180,0.0,-999.0,86,0.00,,,0.00,Wunderground v.1.15,2013-08-19 07:05:00,
2013-08-19 00:10:00,66.1,61.8,29.90,South,180,0.0,-999.0,86,0.00,,,0.00,Wunderground v.1.15,2013-08-19 07:10:00,
2013-08-19 00:15:00,66.2,61.9,29.89,South,180,1.0,-999.0,86,0.00,,,0.00,Wunderground v.1.15,2013-08-19 07:15:00,
2013-08-19 00:20:00,66.2,61.9,29.89,South,180,1.0,-999.0,86,0.00,,,0.00,Wunderground v.1.15,2013-08-19 07:20:00,
2013-08-19 00:25:00,66.3,62.0,29.89,South,180,0.0,-999.0,86,0.00,,,0.00,Wunderground v.1.15,2013-08-19 07:25:00,
2013-08-19 00:35:00,66.3,62.0,29.89,South,180,1.0,-999.0,86,0.00,,,0.00,Wunderground v.1.15,2013-08-19 07:35:00,
2013-08-19 00:40:00,66.3,62.0,29.89,South,180,1.0,-999.0,86,0.00,,,0.00,Wunderground v.1.15,2013-08-19 07:40:00,
2013-08-19 00:45:00,66.3,62.0,29.89,South,180,1.0,-999.0,86,0.00,,,0.00,Wunderground v.1.15,2013-08-19 07:45:00,
2013-08-19 00:50:00,66.3,62.0,29.89,South,180,1.0,-999.0,86,0.00,,,0.00,Wunderground v.1.15,2013-08-19 07:50:00,
2013-08-19 00:55:00,66.3,62.0,29.88,South,180,1.0,-999.0,86,0.00,,,0.00,Wunderground v.1.15,2013-08-19 07:55:00,
2013-08-19 01:00:00,66.1,61.8,29.88,SSW,203,2.0,-999.0,86,0.00,,,0.00,Wunderground v.1.15,2013-08-19 08:00:00,
2013-08-19 01:05:00,66.1,61.8,29.88,SSW,203,2.0,-999.0,86,0.00,,,0.00,Wunderground v.1.15,2013-08-19 08:05:00,
2013-08-19 01:10:00,66.1,61.8,29.88,SSW,203,2.0,-999.0,86,0.00,,,0.00,Wunderground v.1.15,2013-08-19 08:10:00,
2013-08-19 01:15:00,66.1,61.8,29.88,South,180,1.0,-999.0,86,0.00,,,0.00,Wunderground v.1.15,2013-08-19 08:15:00,
2013-08-19 01:20:00,66.1,61.8,29.88,South,180,1.0,-999.0,86,0.00,,,0.00,Wunderground v.1.15,2013-08-19 08:20:00,
2013-08-19 01:25:00,66.2,61.9,29.88,South,180,1.0,-999.0,86,0.00,,,0.00,Wunderground v.1.15,2013-08-19 08:25:00,
2013-08-19 01:30:00,66.2,61.9,29.88,South,180,1.0,-999.0,86,0.00,,,0.00,Wunderground v.1.15,2013-08-19 08:30:00,
2013-08-19 01:35:00,66.2,61.9,29.87,South,180,1.0,-999.0,86,0.00,,,0.00,Wunderground v.1.15,2013-08-19 08:35:00,
2013-08-19 01:40:00,66.2,61.9,29.87,South,180,1.0,-999.0,86,0.00,,,0.00,Wunderground v.1.15,2013-08-19 08:40:00,
2013-08-19 01:45:00,66.1,61.8,29.87,South,180,1.0,-999.0,86,0.00,,,0.00,Wunderground v.1.15,2013-08-19 08:45:00,
2013-08-19 01:50:00,66.1,61.8,29.87,South,180,1.0,-999.0,86,0.00,,,0.00,Wunderground v.1.15,2013-08-19 08:50:00,
2013-08-19 01:55:00,66.2,61.9,29.88,South,180,1.0,-999.0,86,0.00,,,0.00,Wunderground v.1.15,2013-08-19 08:55:00,
2013-08-19 02:00:00,66.2,61.9,29.88,South,180,1.0,-999.0,86,0.00,,,0.00,Wunderground v.1.15,2013-08-19 09:00:00,
2013-08-19 02:05:00,66.2,61.9,29.88,South,180,1.0,-999.0,86,0.00,,,0.00,Wunderground v.1.15,2013-08-19 09:05:00,
2013-08-19 02:10:00,66.2,61.9,29.88,South,180,1.0,-999.0,86,0.00,,,0.00,Wunderground v.1.15,2013-08-19 09:10:00,
2013-08-19 02:15:00,66.1,61.8,29.87,South,180,1.0,-999.0,86,0.00,,,0.00,Wunderground v.1.15,2013-08-19 09:15:00,
2013-08-19 02:20:00,66.1,61.8,29.87,South,180,1.0,-999.0,86,0.00,,,0.00,Wunderground v.1.15,2013-08-19 09:20:00,
2013-08-19 02:25:00,66.1,61.8,29.87,SE,135,0.0,-999.0,86,0.00,,,0.00,Wunderground v.1.15,2013-08-19 09:25:00,
2013-08-19 02:30:00,66.1,61.8,29.87,SE,135,0.0,-999.0,86,0.00,,,0.00,Wunderground v.1.15,2013-08-19 09:30:00,
2013-08-19 02:35:00,66.2,61.9,29.87,SE,135,1.0,-999.0,86,0.00,,,0.00,Wunderground v.1.15,2013-08-19 09:35:00,
2013-08-19 02:40:00,66.2,61.9,29.87,SE,135,1.0,-999.0,86,0.00,,,0.00,Wunderground v.1.15,2013-08-19 09:40:00,
2013-08-19 02:45:00,66.1,61.8,29.87,SE,135,1.0,-999.0,86,0.00,,,0.00,Wunderground v.1.15,2013-08-19 09:45:00,
2013-08-19 02:50:00,66.1,61.8,29.87,SE,135,1.0,-999.0,86,0.00,,,0.00,Wunderground v.1.15,2013-08-19 09:50:00,
2013-08-19 02:55:00,66.0,61.7,29.87,SE,135,1.0,-999.0,86,0.00,,,0.00,Wunderground v.1.15,2013-08-19 09:55:00,
2013-08-19 03:00:00,66.0,61.7,29.87,SE,135,1.0,-999.0,86,0.00,,,0.00,Wunderground v.1.15,2013-08-19 10:00:00,
2013-08-19 03:05:00,66.0,61.7,29.87,SE,135,0.0,-999.0,86,0.00,,,0.00,Wunderground v.1.15,2013-08-19 10:05:00,
2013-08-19 03:10:00,66.0,61.7,29.87,SE,135,0.0,-999.0,86,0.00,,,0.00,Wunderground v.1.15,2013-08-19 10:10:00,
2013-08-19 03:15:00,66.0,61.7,29.87,SSE,158,1.0,-999.0,86,0.00,,,0.00,Wunderground v.1.15,2013-08-19 10:15:00,
2013-08-19 03:20:00,66.0,61.7,29.87,SSE,158,1.0,-999.0,86,0.00,,,0.00,Wunderground v.1.15,2013-08-19 10:20:00,
2013-08-19 03:25:00,66.0,61.7,29.87,SE,135,1.0,-999.0,86,0.00,,,0.00,Wunderground v.1.15,2013-08-19 10:25:00,
2013-08-19 03:30:00,66.0,61.7,29.87,SE,135,1.0,-999.0,86,0.00,,,0.00,Wunderground v.1.15,2013-08-19 10:30:00,
2013-08-19 03:35:00,66.0,61.7,29.86,SE,135,1.0,-999.0,86,0.00,,,0.00,Wunderground v.1.15,2013-08-19 10:35:00,
2013-08-19 03:40:00,66.0,61.7,29.86,SE,135,1.0,-999.0,86,0.00,,,0.00,Wunderground v.1.15,2013-08-19 10:40:00,
2013-08-19 03:45:00,66.0,61.7,29.87,SSW,203,1.0,-999.0,86,0.00,,,0.00,Wunderground v.1.15,2013-08-19 10:45:00,
2013-08-19 03:50:00,66.0,61.7,29.87,SSW,203,1.0,-999.0,86,0.00,,,0.00,Wunderground v.1.15,2013-08-19 10:50:00,
2013-08-19 03:55:00,66.0,61.7,29.87,SSW,203,1.0,-999.0,86,0.00,,,0.00,Wunderground v.1.15,2013-08-19 10:55:00,
2013-08-19 04:00:00,66.0,61.7,29.87,SSW,203,1.0,-999.0,86,0.00,,,0.00,Wunderground v.1.15,2013-08-19 11:00:00,
2013-08-19 04:05:00,66.0,61.7,29.87,SSW,203,1.0,-999.0,86,0.00,,,0.00,Wunderground v.1.15,2013-08-19 11:05:00,
2013-08-19 04:10:00,66.0,61.7,29.87,SSW,203,1.0,-999.0,86,0.00,,,0.00,Wunderground v.1.15,2013-08-19 11:10:00,
2013-08-19 04:15:00,66.0,61.7,29.87,SSW,203,1.0,-999.0,86,0.00,,,0.00,Wunderground v.1.15,2013-08-19 11:15:00,
2013-08-19 04:20:00,66.0,61.7,29.87,SSW,203,1.0,-999.0,86,0.00,,,0.00,Wunderground v.1.15,2013-08-19 11:20:00,
2013-08-19 04:25:00,66.0,61.7,29.87,SSW,203,1.0,-999.0,86,0.00,,,0.00,Wunderground v.1.15,2013-08-19 11:25:00,
2013-08-19 04:30:00,66.0,61.7,29.87,SSW,203,1.0,-999.0,86,0.00,,,0.00,Wunderground v.1.15,2013-08-19 11:30:00,
2013-08-19 04:35:00,66.1,62.1,29.87,SSW,203,0.0,-999.0,87,0.00,,,0.00,Wunderground v.1.15,2013-08-19 11:35:00,
2013-08-19 04:40:00,66.1,62.1,29.87,SSW,203,0.0,-999.0,87,0.00,,,0.00,Wunderground v.1.15,2013-08-19 11:40:00,
2013-08-19 04:45:00,66.1,62.1,29.87,SSW,203,1.0,-999.0,87,0.00,,,0.00,Wunderground v.1.15,2013-08-19 11:45:00,
2013-08-19 04:50:00,66.1,62.1,29.87,SSW,203,1.0,-999.0,87,0.00,,,0.00,Wunderground v.1.15,2013-08-19 11:50:00,
2013-08-19 04:55:00,66.1,62.1,29.87,SSW,203,0.0,-999.0,87,0.00,,,0.00,Wunderground v.1.15,2013-08-19 11:55:00,
2013-08-19 05:00:00,66.1,62.1,29.87,SSW,203,0.0,-999.0,87,0.00,,,0.00,Wunderground v.1.15,2013-08-19 12:00:00,
2013-08-19 05:05:00,66.1,62.1,29.87,SSW,203,1.0,-999.0,87,0.00,,,0.00,Wunderground v.1.15,2013-08-19 12:05:00,
2013-08-19 05:10:00,66.1,62.1,29.87,SSW,203,1.0,-999.0,87,0.00,,,0.00,Wunderground v.1.15,2013-08-19 12:10:00,
2013-08-19 05:15:00,66.0,62.0,29.87,SSW,203,2.0,-999.0,87,0.00,,,0.00,Wunderground v.1.15,2013-08-19 12:15:00,
2013-08-19 05:20:00,66.0,62.0,29.87,SSW,203,2.0,-999.0,87,0.00,,,0.00,Wunderground v.1.15,2013-08-19 12:20:00,
2013-08-19 05:25:00,66.0,62.0,29.87,SSW,203,1.0,-999.0,87,0.00,,,0.00,Wunderground v.1.15,2013-08-19 12:25:00,
2013-08-19 05:30:00,66.0,62.0,29.87,SSW,203,1.0,-999.0,87,0.00,,,0.00,Wunderground v.1.15,2013-08-19 12:30:00,
2013-08-19 05:35:00,66.0,62.0,29.88,SSW,203,1.0,-999.0,87,0.00,,,0.00,Wunderground v.1.15,2013-08-19 12:35:00,
2013-08-19 05:40:00,66.0,62.0,29.88,SSW,203,1.0,-999.0,87,0.00,,,0.00,Wunderground v.1.15,2013-08-19 12:40:00,
2013-08-19 05:45:00,66.1,62.1,29.88,SSW,203,0.0,-999.0,87,0.00,,,0.00,Wunderground v.1.15,2013-08-19 12:45:00,
2013-08-19 05:50:00,66.1,62.1,29.88,SSW,203,0.0,-999.0,87,0.00,,,0.00,Wunderground v.1.15,2013-08-19 12:50:00,
2013-08-19 05:55:00,66.1,62.1,29.88,SSW,203,0.0,-999.0,87,0.00,,,0.00,Wunderground v.1.15,2013-08-19 12:55:00,
2013-08-19 06:00:00,66.1,62.1,29.88,SSW,203,0.0,-999.0,87,0.00,,,0.00,Wunderground v.1.15,2013-08-19 13:00:00,
2013-08-19 06:05:00,66.1,62.1,29.88,SSW,203,0.0,-999.0,87,0.00,,,0.00,Wunderground v.1.15,2013-08-19 13:05:00,
2013-08-19 06:10:00,66.1,62.1,29.88,SSW,203,0.0,-999.0,87,0.00,,,0.00,Wunderground v.1.15,2013-08-19 13:10:00,
2013-08-19 06:15:00,66.1,62.1,29.88,SSW,203,0.0,-999.0,87,0.00,,,0.00,Wunderground v.1.15,2013-08-19 13:15:00,
2013-08-19 06:20:00,66.1,62.1,29.88,SSW,203,0.0,-999.0,87,0.00,,,0.00,Wunderground v.1.15,2013-08-19 13:20:00,
2013-08-19 06:25:00,66.2,62.2,29.89,SSW,203,0.0,-999.0,87,0.00,,,0.00,Wunderground v.1.15,2013-08-19 13:25:00,
2013-08-19 06:30:00,66.2,62.2,29.89,SSW,203,0.0,-999.0,87,0.00,,,0.00,Wunderground v.1.15,2013-08-19 13:30:00,
2013-08-19 06:35:00,66.2,62.2,29.89,SSW,203,0.0,-999.0,87,0.00,,,0.00,Wunderground v.1.15,2013-08-19 13:35:00,
2013-08-19 06:40:00,66.2,62.2,29.89,SSW,203,0.0,-999.0,87,0.00,,,0.00,Wunderground v.1.15,2013-08-19 13:40:00,
2013-08-19 06:45:00,66.3,62.3,29.89,SSW,203,2.0,-999.0,87,0.00,,,0.00,Wunderground v.1.15,2013-08-19 13:45:00,
2013-08-19 06:50:00,66.3,62.3,29.89,SSW,203,2.0,-999.0,87,0.00,,,0.00,Wunderground v.1.15,2013-08-19 13:50:00,
2013-08-19 06:55:00,66.2,62.2,29.89,SSW,203,2.0,-999.0,87,0.00,,,0.00,Wunderground v.1.15,2013-08-19 13:55:00,
2013-08-19 07:00:00,66.2,62.2,29.89,SSW,203,2.0,-999.0,87,0.00,,,0.00,Wunderground v.1.15,2013-08-19 14:00:00,
2013-08-19 07:05:00,66.2,62.2,29.90,SSW,203,1.0,-999.0,87,0.00,,,0.00,Wunderground v.1.15,2013-08-19 14:05:00,
2013-08-19 07:10:00,66.2,62.2,29.90,SSW,203,1.0,-999.0,87,0.00,,,0.00,Wunderground v.1.15,2013-08-19 14:10:00,
2013-08-19 07:15:00,66.2,62.2,29.91,SSW,203,1.0,-999.0,87,0.00,,,0.00,Wunderground v.1.15,2013-08-19 14:15:00,
2013-08-19 07:20:00,66.2,62.2,29.91,SSW,203,1.0,-999.0,87,0.00,,,0.00,Wunderground v.1.15,2013-08-19 14:20:00,
2013-08-19 07:25:00,66.2,62.2,29.91,SSW,203,2.0,-999.0,87,0.00,,,0.00,Wunderground v.1.15,2013-08-19 14:25:00,
2013-08-19 07:30:00,66.2,62.2,29.91,SSW,203,2.0,-999.0,87,0.00,,,0.00,Wunderground v.1.15,2013-08-19 14:30:00,
2013-08-19 07:35:00,66.3,62.3,29.91,SSW,203,1.0,-999.0,87,0.00,,,0.00,Wunderground v.1.15,2013-08-19 14:35:00,
2013-08-19 07:40:00,66.3,62.3,29.91,SSW,203,1.0,-999.0,87,0.00,,,0.00,Wunderground v.1.15,2013-08-19 14:40:00,
2013-08-19 07:45:00,66.4,62.4,29.91,SSW,203,1.0,-999.0,87,0.00,,,0.00,Wunderground v.1.15,2013-08-19 14:45:00,
2013-08-19 07:50:00,66.4,62.4,29.91,SSW,203,1.0,-999.0,87,0.00,,,0.00,Wunderground v.1.15,2013-08-19 14:50:00,
2013-08-19 07:55:00,66.3,62.3,29.92,SSW,203,3.0,-999.0,87,0.00,,,0.00,Wunderground v.1.15,2013-08-19 14:55:00,
2013-08-19 08:00:00,66.3,62.3,29.92,SSW,203,3.0,-999.0,87,0.00,,,0.00,Wunderground v.1.15,2013-08-19 15:00:00,
2013-08-19 08:05:00,66.3,62.3,29.92,SSW,203,2.0,-999.0,87,0.00,,,0.00,Wunderground v.1.15,2013-08-19 15:05:00,
2013-08-19 08:10:00,66.3,62.3,29.92,SSW,203,2.0,-999.0,87,0.00,,,0.00,Wunderground v.1.15,2013-08-19 15:10:00,
2013-08-19 08:15:00,66.4,62.4,29.92,SSW,203,2.0,-999.0,87,0.00,,,0.00,Wunderground v.1.15,2013-08-19 15:15:00,
2013-08-19 08:20:00,66.4,62.4,29.92,SSW,203,2.0,-999.0,87,0.00,,,0.00,Wunderground v.1.15,2013-08-19 15:20:00,
2013-08-19 08:25:00,66.5,62.5,29.92,SSW,203,3.0,-999.0,87,0.00,,,0.00,Wunderground v.1.15,2013-08-19 15:25:00,
2013-08-19 08:30:00,66.5,62.5,29.92,SSW,203,3.0,-999.0,87,0.00,,,0.00,Wunderground v.1.15,2013-08-19 15:30:00,
2013-08-19 08:35:00,66.5,62.2,29.93,SSW,203,3.0,-999.0,86,0.00,,,0.00,Wunderground v.1.15,2013-08-19 15:35:00,
2013-08-19 08:40:00,66.5,62.2,29.93,SSW,203,3.0,-999.0,86,0.00,,,0.00,Wunderground v.1.15,2013-08-19 15:40:00,
2013-08-19 08:45:00,66.6,62.3,29.92,SSW,203,3.0,-999.0,86,0.00,,,0.00,Wunderground v.1.15,2013-08-19 15:45:00,
2013-08-19 08:50:00,66.6,62.3,29.92,SSW,203,3.0,-999.0,86,0.00,,,0.00,Wunderground v.1.15,2013-08-19 15:50:00,
2013-08-19 08:55:00,66.7,62.4,29.93,SW,225,3.0,-999.0,86,0.00,,,0.00,Wunderground v.1.15,2013-08-19 15:55:00,
2013-08-19 09:00:00,66.7,62.4,29.93,SW,225,3.0,-999.0,86,0.00,,,0.00,Wunderground v.1.15,2013-08-19 16:00:00,
2013-08-19 09:05:00,66.9,62.2,29.93,SSE,158,3.0,-999.0,85,0.00,,,0.00,Wunderground v.1.15,2013-08-19 16:05:00,
2013-08-19 09:10:00,66.9,62.2,29.93,SSE,158,3.0,-999.0,85,0.00,,,0.00,Wunderground v.1.15,2013-08-19 16:10:00,
2013-08-19 09:15:00,67.0,62.7,29.92,SW,225,3.0,-999.0,86,0.00,,,0.00,Wunderground v.1.15,2013-08-19 16:15:00,
2013-08-19 09:20:00,67.0,62.7,29.92,SW,225,3.0,-999.0,86,0.00,,,0.00,Wunderground v.1.15,2013-08-19 16:20:00,
2013-08-19 09:25:00,67.3,62.6,29.92,SW,225,2.0,-999.0,85,0.00,,,0.00,Wunderground v.1.15,2013-08-19 16:25:00,
2013-08-19 09:30:00,67.3,62.6,29.92,SW,225,2.0,-999.0,85,0.00,,,0.00,Wunderground v.1.15,2013-08-19 16:30:00,
2013-08-19 09:35:00,67.4,62.7,29.93,SSW,203,3.0,-999.0,85,0.00,,,0.00,Wunderground v.1.15,2013-08-19 16:35:00,
2013-08-19 09:40:00,67.4,62.7,29.93,SSW,203,3.0,-999.0,85,0.00,,,0.00,Wunderground v.1.15,2013-08-19 16:40:00,
2013-08-19 09:45:00,67.1,62.4,29.93,SW,225,5.0,-999.0,85,0.00,,,0.00,Wunderground v.1.15,2013-08-19 16:45:00,
2013-08-19 09:50:00,67.1,62.4,29.93,SW,225,5.0,-999.0,85,0.00,,,0.00,Wunderground v.1.15,2013-08-19 16:50:00,
2013-08-19 09:55:00,67.1,62.4,29.93,SW,225,3.0,-999.0,85,0.00,,,0.00,Wunderground v.1.15,2013-08-19 16:55:00,
2013-08-19 10:00:00,67.1,62.4,29.93,SW,225,3.0,-999.0,85,0.00,,,0.00,Wunderground v.1.15,2013-08-19 17:00:00,
2013-08-19 10:05:00,67.2,62.5,29.94,SSW,203,3.0,-999.0,85,0.00,,,0.00,Wunderground v.1.15,2013-08-19 17:05:00,
2013-08-19 10:10:00,67.2,62.5,29.94,SSW,203,3.0,-999.0,85,0.00,,,0.00,Wunderground v.1.15,2013-08-19 17:10:00,
2013-08-19 10:15:00,67.4,62.7,29.94,SW,225,2.0,-999.0,85,0.00,,,0.00,Wunderground v.1.15,2013-08-19 17:15:00,
2013-08-19 10:20:00,67.4,62.7,29.94,SW,225,2.0,-999.0,85,0.00,,,0.00,Wunderground v.1.15,2013-08-19 17:20:00,
2013-08-19 10:25:00,67.6,62.9,29.94,SW,225,3.0,-999.0,85,0.00,,,0.00,Wunderground v.1.15,2013-08-19 17:25:00,
2013-08-19 10:30:00,67.6,62.9,29.94,SW,225,3.0,-999.0,85,0.00,,,0.00,Wunderground v.1.15,2013-08-19 17:30:00,
2013-08-19 10:35:00,67.5,62.5,29.94,SW,225,4.0,-999.0,84,0.00,,,0.00,Wunderground v.1.15,2013-08-19 17:35:00,
2013-08-19 10:40:00,67.5,62.5,29.94,SW,225,4.0,-999.0,84,0.00,,,0.00,Wunderground v.1.15,2013-08-19 17:40:00,
2013-08-19 10:45:00,67.5,62.5,29.94,SW,225,3.0,-999.0,84,0.00,,,0.00,Wunderground v.1.15,2013-08-19 17:45:00,
2013-08-19 10:50:00,67.5,62.5,29.94,SW,225,3.0,-999.0,84,0.00,,,0.00,Wunderground v.1.15,2013-08-19 17:50:00,
2013-08-19 10:55:00,67.2,62.2,29.95,SW,225,5.0,-999.0,84,0.00,,,0.00,Wunderground v.1.15,2013-08-19 17:55:00,
2013-08-19 11:00:00,67.2,62.2,29.95,SW,225,5.0,-999.0,84,0.00,,,0.00,Wunderground v.1.15,2013-08-19 18:00:00,
2013-08-19 11:05:00,67.2,62.2,29.94,SW,225,4.0,-999.0,84,0.00,,,0.00,Wunderground v.1.15,2013-08-19 18:05:00,
2013-08-19 11:10:00,67.2,62.2,29.94,SW,225,4.0,-999.0,84,0.00,,,0.00,Wunderground v.1.15,2013-08-19 18:10:00,
2013-08-19 11:15:00,67.3,62.3,29.94,SW,225,4.0,-999.0,84,0.00,,,0.00,Wunderground v.1.15,2013-08-19 18:15:00,
2013-08-19 11:20:00,67.3,62.3,29.94,SW,225,4.0,-999.0,84,0.00,,,0.00,Wunderground v.1.15,2013-08-19 18:20:00,
2013-08-19 11:25:00,67.5,62.5,29.93,SW,225,3.0,-999.0,84,0.00,,,0.00,Wunderground v.1.15,2013-08-19 18:25:00,
2013-08-19 11:30:00,67.5,62.5,29.93,SW,225,3.0,-999.0,84,0.00,,,0.00,Wunderground v.1.15,2013-08-19 18:30:00,
2013-08-19 11:35:00,67.8,62.8,29.93,SW,225,3.0,-999.0,84,0.00,,,0.00,Wunderground v.1.15,2013-08-19 18:35:00,
2013-08-19 11:40:00,67.8,62.8,29.93,SW,225,3.0,-999.0,84,0.00,,,0.00,Wunderground v.1.15,2013-08-19 18:40:00,
2013-08-19 11:45:00,68.2,62.8,29.93,SSW,203,3.0,-999.0,83,0.00,,,0.00,Wunderground v.1.15,2013-08-19 18:45:00,
2013-08-19 11:50:00,68.2,62.8,29.93,SSW,203,3.0,-999.0,83,0.00,,,0.00,Wunderground v.1.15,2013-08-19 18:50:00,
2013-08-19 11:55:00,68.8,63.1,29.93,WNW,293,3.0,-999.0,82,0.00,,,0.00,Wunderground v.1.15,2013-08-19 18:55:00,
2013-08-19 12:00:00,68.8,63.1,29.93,WNW,293,3.0,-999.0,82,0.00,,,0.00,Wunderground v.1.15,2013-08-19 19:00:00,
2013-08-19 12:05:00,68.8,63.1,29.93,WSW,248,4.0,-999.0,82,0.00,,,0.00,Wunderground v.1.15,2013-08-19 19:05:00,
2013-08-19 12:10:00,68.8,63.1,29.93,WSW,248,4.0,-999.0,82,0.00,,,0.00,Wunderground v.1.15,2013-08-19 19:10:00,
2013-08-19 12:15:00,69.1,63.4,29.93,WSW,248,1.0,-999.0,82,0.00,,,0.00,Wunderground v.1.15,2013-08-19 19:15:00,
2013-08-19 12:20:00,69.1,63.4,29.93,WSW,248,1.0,-999.0,82,0.00,,,0.00,Wunderground v.1.15,2013-08-19 19:20:00,
2013-08-19 12:25:00,70.1,64.3,29.93,SW,225,3.0,-999.0,82,0.00,,,0.00,Wunderground v.1.15,2013-08-19 19:25:00,
2013-08-19 12:30:00,70.1,64.3,29.93,SW,225,3.0,-999.0,82,0.00,,,0.00,Wunderground v.1.15,2013-08-19 19:30:00,
2013-08-19 12:35:00,70.9,64.4,29.93,SW,225,3.0,-999.0,80,0.00,,,0.00,Wunderground v.1.15,2013-08-19 19:35:00,
2013-08-19 12:40:00,70.9,64.4,29.93,SW,225,3.0,-999.0,80,0.00,,,0.00,Wunderground v.1.15,2013-08-19 19:40:00,
2013-08-19 12:45:00,71.4,64.5,29.92,SW,225,3.0,-999.0,79,0.00,,,0.00,Wunderground v.1.15,2013-08-19 19:45:00,
2013-08-19 12:50:00,71.4,64.5,29.92,SW,225,3.0,-999.0,79,0.00,,,0.00,Wunderground v.1.15,2013-08-19 19:50:00,
2013-08-19 12:55:00,72.0,64.8,29.92,SSW,203,3.0,-999.0,78,0.00,,,0.00,Wunderground v.1.15,2013-08-19 19:55:00,
2013-08-19 13:00:00,72.0,64.8,29.92,SSW,203,3.0,-999.0,78,0.00,,,0.00,Wunderground v.1.15,2013-08-19 20:00:00,
2013-08-19 13:05:00,71.8,64.6,29.91,SSW,203,4.0,-999.0,78,0.00,,,0.00,Wunderground v.1.15,2013-08-19 20:05:00,
2013-08-19 13:10:00,71.8,64.6,29.91,SSW,203,4.0,-999.0,78,0.00,,,0.00,Wunderground v.1.15,2013-08-19 20:10:00,
2013-08-19 13:15:00,72.4,64.4,29.92,SW,225,4.0,-999.0,76,0.00,,,0.00,Wunderground v.1.15,2013-08-19 20:15:00,
2013-08-19 13:20:00,72.4,64.4,29.92,SW,225,4.0,-999.0,76,0.00,,,0.00,Wunderground v.1.15,2013-08-19 20:20:00,
2013-08-19 13:25:00,72.4,64.8,29.91,WSW,248,4.0,-999.0,77,0.00,,,0.00,Wunderground v.1.15,2013-08-19 20:25:00,
2013-08-19 13:30:00,72.4,64.8,29.91,WSW,248,4.0,-999.0,77,0.00,,,0.00,Wunderground v.1.15,2013-08-19 20:30:00,
2013-08-19 13:35:00,72.8,65.2,29.91,SW,225,3.0,-999.0,77,0.00,,,0.00,Wunderground v.1.15,2013-08-19 20:35:00,
2013-08-19 13:40:00,72.8,65.2,29.91,SW,225,3.0,-999.0,77,0.00,,,0.00,Wunderground v.1.15,2013-08-19 20:40:00,
2013-08-19 13:45:00,72.5,64.5,29.90,SW,225,5.0,-999.0,76,0.00,,,0.00,Wunderground v.1.15,2013-08-19 20:45:00,
2013-08-19 13:50:00,72.5,64.5,29.90,SW,225,5.0,-999.0,76,0.00,,,0.00,Wunderground v.1.15,2013-08-19 20:50:00,
2013-08-19 13:55:00,72.4,64.8,29.90,SSW,203,4.0,-999.0,77,0.00,,,0.00,Wunderground v.1.15,2013-08-19 20:55:00,
2013-08-19 14:00:00,72.4,64.8,29.90,SSW,203,4.0,-999.0,77,0.00,,,0.00,Wunderground v.1.15,2013-08-19 21:00:00,
2013-08-19 14:05:00,73.3,64.5,29.90,SW,225,3.0,-999.0,74,0.00,,,0.00,Wunderground v.1.15,2013-08-19 21:05:00,
2013-08-19 14:10:00,73.3,64.5,29.90,SW,225,3.0,-999.0,74,0.00,,,0.00,Wunderground v.1.15,2013-08-19 21:10:00,
2013-08-19 14:15:00,73.5,64.7,29.89,SW,225,4.0,-999.0,74,0.00,,,0.00,Wunderground v.1.15,2013-08-19 21:15:00,
2013-08-19 14:20:00,73.5,64.7,29.89,SW,225,4.0,-999.0,74,0.00,,,0.00,Wunderground v.1.15,2013-08-19 21:20:00,
2013-08-19 14:25:00,73.3,64.5,29.89,SW,225,6.0,-999.0,74,0.00,,,0.00,Wunderground v.1.15,2013-08-19 21:25:00,
2013-08-19 14:30:00,73.3,64.5,29.89,SW,225,6.0,-999.0,74,0.00,,,0.00,Wunderground v.1.15,2013-08-19 21:30:00,
2013-08-19 14:35:00,73.0,64.6,29.89,SW,225,5.0,-999.0,75,0.00,,,0.00,Wunderground v.1.15,2013-08-19 21:35:00,
2013-08-19 14:40:00,73.0,64.6,29.89,SW,225,5.0,-999.0,75,0.00,,,0.00,Wunderground v.1.15,2013-08-19 21:40:00,
2013-08-19 14:45:00,72.9,64.5,29.88,SW,225,4.0,-999.0,75,0.00,,,0.00,Wunderground v.1.15,2013-08-19 21:45:00,
2013-08-19 14:50:00,72.9,64.5,29.88,SW,225,4.0,-999.0,75,0.00,,,0.00,Wunderground v.1.15,2013-08-19 21:50:00,
2013-08-19 14:55:00,73.7,64.5,29.88,SSW,203,4.0,-999.0,73,0.00,,,0.00,Wunderground v.1.15,2013-08-19 21:55:00,
2013-08-19 15:00:00,73.7,64.5,29.88,SSW,203,4.0,-999.0,73,0.00,,,0.00,Wunderground v.1.15,2013-08-19 22:00:00,
2013-08-19 15:05:00,73.3,64.5,29.87,SW,225,4.0,-999.0,74,0.00,,,0.00,Wunderground v.1.15,2013-08-19 22:05:00,
2013-08-19 15:10:00,73.3,64.5,29.87,SW,225,4.0,-999.0,74,0.00,,,0.00,Wunderground v.1.15,2013-08-19 22:10:00,
2013-08-19 15:15:00,73.7,64.9,29.86,SW,225,4.0,-999.0,74,0.00,,,0.00,Wunderground v.1.15,2013-08-19 22:15:00,
2013-08-19 15:20:00,73.7,64.9,29.86,SW,225,4.0,-999.0,74,0.00,,,0.00,Wunderground v.1.15,2013-08-19 22:20:00,
2013-08-19 15:25:00,73.4,64.6,29.86,SW,225,5.0,-999.0,74,0.00,,,0.00,Wunderground v.1.15,2013-08-19 22:25:00,
2013-08-19 15:30:00,73.4,64.6,29.86,SW,225,5.0,-999.0,74,0.00,,,0.00,Wunderground v.1.15,2013-08-19 22:30:00,
2013-08-19 15:35:00,73.3,64.5,29.86,SW,225,5.0,-999.0,74,0.00,,,0.00,Wunderground v.1.15,2013-08-19 22:35:00,
2013-08-19 15:40:00,73.3,64.5,29.86,SW,225,5.0,-999.0,74,0.00,,,0.00,Wunderground v.1.15,2013-08-19 22:40:00,
2013-08-19 15:45:00,73.1,64.7,29.86,SW,225,5.0,-999.0,75,0.00,,,0.00,Wunderground v.1.15,2013-08-19 22:45:00,
2013-08-19 15:50:00,73.1,64.7,29.86,SW,225,5.0,-999.0,75,0.00,,,0.00,Wunderground v.1.15,2013-08-19 22:50:00,
2013-08-19 15:55:00,72.7,64.3,29.86,SSW,203,6.0,-999.0,75,0.00,,,0.00,Wunderground v.1.15,2013-08-19 22:55:00,
2013-08-19 16:00:00,72.7,64.3,29.86,SSW,203,6.0,-999.0,75,0.00,,,0.00,Wunderground v.1.15,2013-08-19 23:00:00,
2013-08-19 16:05:00,72.1,64.1,29.86,SW,225,6.0,-999.0,76,0.00,,,0.00,Wunderground v.1.15,2013-08-19 23:05:00,
2013-08-19 16:10:00,72.1,64.1,29.86,SW,225,6.0,-999.0,76,0.00,,,0.00,Wunderground v.1.15,2013-08-19 23:10:00,
2013-08-19 16:15:00,71.9,64.3,29.85,SW,225,6.0,-999.0,77,0.00,,,0.00,Wunderground v.1.15,2013-08-19 23:15:00,
2013-08-19 16:20:00,71.9,64.3,29.85,SW,225,6.0,-999.0,77,0.00,,,0.00,Wunderground v.1.15,2013-08-19 23:20:00,
2013-08-19 16:25:00,71.9,63.9,29.85,SSW,203,6.0,-999.0,76,0.00,,,0.00,Wunderground v.1.15,2013-08-19 23:25:00,
2013-08-19 16:30:00,71.9,63.9,29.85,SSW,203,6.0,-999.0,76,0.00,,,0.00,Wunderground v.1.15,2013-08-19 23:30:00,
2013-08-19 16:35:00,71.3,64.1,29.85,SW,225,7.0,-999.0,78,0.00,,,0.00,Wunderground v.1.15,2013-08-19 23:35:00,
2013-08-19 16:40:00,71.3,64.1,29.85,SW,225,7.0,-999.0,78,0.00,,,0.00,Wunderground v.1.15,2013-08-19 23:40:00,
2013-08-19 16:45:00,70.9,63.7,29.85,SW,225,7.0,-999.0,78,0.00,,,0.00,Wunderground v.1.15,2013-08-19 23:45:00,
2013-08-19 16:50:00,70.9,63.7,29.85,SW,225,7.0,-999.0,78,0.00,,,0.00,Wunderground v.1.15,2013-08-19 23:50:00,
2013-08-19 16:55:00,71.2,64.0,29.85,SW,225,7.0,-999.0,78,0.00,,,0.00,Wunderground v.1.15,2013-08-19 23:55:00,
2013-08-19 17:00:00,71.2,64.0,29.85,SW,225,7.0,-999.0,78,0.00,,,0.00,Wunderground v.1.15,2013-08-20 00:00:00,
2013-08-19 17:05:00,71.2,64.0,29.84,SSW,203,7.0,-999.0,78,0.00,,,0.00,Wunderground v.1.15,2013-08-20 00:05:00,
2013-08-19 17:10:00,71.2,64.0,29.84,SSW,203,7.0,-999.0,78,0.00,,,0.00,Wunderground v.1.15,2013-08-20 00:10:00,
2013-08-19 17:15:00,72.5,64.5,29.84,SSW,203,4.0,-999.0,76,0.00,,,0.00,Wunderground v.1.15,2013-08-20 00:15:00,
2013-08-19 17:20:00,72.5,64.5,29.84,SSW,203,4.0,-999.0,76,0.00,,,0.00,Wunderground v.1.15,2013-08-20 00:20:00,
2013-08-19 17:25:00,73.2,64.4,29.84,SW,225,4.0,-999.0,74,0.00,,,0.00,Wunderground v.1.15,2013-08-20 00:25:00,
2013-08-19 17:30:00,73.2,64.4,29.84,SW,225,4.0,-999.0,74,0.00,,,0.00,Wunderground v.1.15,2013-08-20 00:30:00,
2013-08-19 17:35:00,73.5,64.7,29.84,SSW,203,4.0,-999.0,74,0.00,,,0.00,Wunderground v.1.15,2013-08-20 00:35:00,
2013-08-19 17:40:00,73.5,64.7,29.84,SSW,203,4.0,-999.0,74,0.00,,,0.00,Wunderground v.1.15,2013-08-20 00:40:00,
2013-08-19 17:45:00,73.2,64.0,29.84,SSW,203,4.0,-999.0,73,0.00,,,0.00,Wunderground v.1.15,2013-08-20 00:45:00,
2013-08-19 17:50:00,73.2,64.0,29.84,SSW,203,4.0,-999.0,73,0.00,,,0.00,Wunderground v.1.15,2013-08-20 00:50:00,
2013-08-19 17:55:00,72.8,64.0,29.84,SSW,203,5.0,-999.0,74,0.00,,,0.00,Wunderground v.1.15,2013-08-20 00:55:00,
2013-08-19 18:00:00,72.8,64.0,29.84,SSW,203,5.0,-999.0,74,0.00,,,0.00,Wunderground v.1.15,2013-08-20 01:00:00,
2013-08-19 18:05:00,72.8,63.6,29.84,SW,225,4.0,-999.0,73,0.00,,,0.00,Wunderground v.1.15,2013-08-20 01:05:00,
2013-08-19 18:10:00,72.8,63.6,29.84,SW,225,4.0,-999.0,73,0.00,,,0.00,Wunderground v.1.15,2013-08-20 01:10:00,
2013-08-19 18:15:00,73.0,63.4,29.83,SW,225,4.0,-999.0,72,0.00,,,0.00,Wunderground v.1.15,2013-08-20 01:15:00,
2013-08-19 18:20:00,73.0,63.4,29.83,SW,225,4.0,-999.0,72,0.00,,,0.00,Wunderground v.1.15,2013-08-20 01:20:00,
2013-08-19 18:25:00,73.3,63.7,29.84,SSW,203,3.0,-999.0,72,0.00,,,0.00,Wunderground v.1.15,2013-08-20 01:25:00,
2013-08-19 18:30:00,73.3,63.7,29.84,SSW,203,3.0,-999.0,72,0.00,,,0.00,Wunderground v.1.15,2013-08-20 01:30:00,
2013-08-19 18:35:00,73.5,63.9,29.84,SSW,203,2.0,-999.0,72,0.00,,,0.00,Wunderground v.1.15,2013-08-20 01:35:00,
2013-08-19 18:40:00,73.5,63.9,29.84,SSW,203,2.0,-999.0,72,0.00,,,0.00,Wunderground v.1.15,2013-08-20 01:40:00,
2013-08-19 18:45:00,73.9,64.3,29.84,SSW,203,1.0,-999.0,72,0.00,,,0.00,Wunderground v.1.15,2013-08-20 01:45:00,
2013-08-19 18:50:00,73.9,64.3,29.84,SSW,203,1.0,-999.0,72,0.00,,,0.00,Wunderground v.1.15,2013-08-20 01:50:00,
2013-08-19 18:55:00,73.8,64.6,29.84,South,180,1.0,-999.0,73,0.00,,,0.00,Wunderground v.1.15,2013-08-20 01:55:00,
2013-08-19 19:00:00,73.8,64.6,29.84,South,180,1.0,-999.0,73,0.00,,,0.00,Wunderground v.1.15,2013-08-20 02:00:00,
2013-08-19 19:05:00,73.3,64.5,29.84,SSE,158,1.0,-999.0,74,0.00,,,0.00,Wunderground v.1.15,2013-08-20 02:05:00,
2013-08-19 19:10:00,73.3,64.5,29.84,SSE,158,1.0,-999.0,74,0.00,,,0.00,Wunderground v.1.15,2013-08-20 02:10:00,
2013-08-19 19:15:00,72.3,64.3,29.85,SE,135,1.0,-999.0,76,0.00,,,0.00,Wunderground v.1.15,2013-08-20 02:15:00,
2013-08-19 19:20:00,72.3,64.3,29.85,SE,135,1.0,-999.0,76,0.00,,,0.00,Wunderground v.1.15,2013-08-20 02:20:00,
2013-08-19 19:25:00,71.6,64.4,29.85,SSE,158,1.0,-999.0,78,0.00,,,0.00,Wunderground v.1.15,2013-08-20 02:25:00,
2013-08-19 19:30:00,71.6,64.4,29.85,SSE,158,1.0,-999.0,78,0.00,,,0.00,Wunderground v.1.15,2013-08-20 02:30:00,
2013-08-19 19:35:00,70.8,63.2,29.85,WNW,293,1.0,-999.0,77,0.00,,,0.00,Wunderground v.1.15,2013-08-20 02:35:00,
2013-08-19 19:40:00,70.8,63.2,29.85,WNW,293,1.0,-999.0,77,0.00,,,0.00,Wunderground v.1.15,2013-08-20 02:40:00,
2013-08-19 19:45:00,70.1,63.3,29.86,NW,315,2.0,-999.0,79,0.00,,,0.00,Wunderground v.1.15,2013-08-20 02:45:00,
2013-08-19 19:50:00,70.1,63.3,29.86,NW,315,2.0,-999.0,79,0.00,,,0.00,Wunderground v.1.15,2013-08-20 02:50:00,
2013-08-19 19:55:00,69.4,63.0,29.86,WNW,293,2.0,-999.0,80,0.00,,,0.00,Wunderground v.1.15,2013-08-20 02:55:00,
2013-08-19 20:00:00,69.4,63.0,29.86,WNW,293,2.0,-999.0,80,0.00,,,0.00,Wunderground v.1.15,2013-08-20 03:00:00,
2013-08-19 20:05:00,68.9,62.8,29.86,WNW,293,2.0,-999.0,81,0.00,,,0.00,Wunderground v.1.15,2013-08-20 03:05:00,
2013-08-19 20:10:00,68.9,62.8,29.86,WNW,293,2.0,-999.0,81,0.00,,,0.00,Wunderground v.1.15,2013-08-20 03:10:00,
2013-08-19 20:15:00,68.5,62.4,29.87,NW,315,3.0,-999.0,81,0.00,,,0.00,Wunderground v.1.15,2013-08-20 03:15:00,
2013-08-19 20:20:00,68.5,62.4,29.87,NW,315,3.0,-999.0,81,0.00,,,0.00,Wunderground v.1.15,2013-08-20 03:20:00,
2013-08-19 20:25:00,68.0,62.3,29.87,WNW,293,2.0,-999.0,82,0.00,,,0.00,Wunderground v.1.15,2013-08-20 03:25:00,
2013-08-19 20:30:00,68.0,62.3,29.87,WNW,293,2.0,-999.0,82,0.00,,,0.00,Wunderground v.1.15,2013-08-20 03:30:00,
2013-08-19 20:35:00,67.6,61.9,29.88,NW,315,3.0,-999.0,82,0.00,,,0.00,Wunderground v.1.15,2013-08-20 03:35:00,
2013-08-19 20:40:00,67.6,61.9,29.88,NW,315,3.0,-999.0,82,0.00,,,0.00,Wunderground v.1.15,2013-08-20 03:40:00,
2013-08-19 20:45:00,67.3,62.0,29.88,NW,315,2.0,-999.0,83,0.00,,,0.00,Wunderground v.1.15,2013-08-20 03:45:00,
2013-08-19 20:50:00,67.3,62.0,29.88,NW,315,2.0,-999.0,83,0.00,,,0.00,Wunderground v.1.15,2013-08-20 03:50:00,
2013-08-19 20:55:00,67.0,61.7,29.88,NW,315,2.0,-999.0,83,0.00,,,0.00,Wunderground v.1.15,2013-08-20 03:55:00,
2013-08-19 21:00:00,67.0,61.7,29.88,NW,315,2.0,-999.0,83,0.00,,,0.00,Wunderground v.1.15,2013-08-20 04:00:00,
2013-08-19 21:05:00,66.8,61.5,29.88,NW,315,2.0,-999.0,83,0.00,,,0.00,Wunderground v.1.15,2013-08-20 04:05:00,
2013-08-19 21:10:00,66.8,61.5,29.88,NW,315,2.0,-999.0,83,0.00,,,0.00,Wunderground v.1.15,2013-08-20 04:10:00,
2013-08-19 21:15:00,66.7,61.7,29.88,NW,315,1.0,-999.0,84,0.00,,,0.00,Wunderground v.1.15,2013-08-20 04:15:00,
2013-08-19 21:20:00,66.7,61.7,29.88,NW,315,1.0,-999.0,84,0.00,,,0.00,Wunderground v.1.15,2013-08-20 04:20:00,
2013-08-19 21:25:00,66.5,61.5,29.88,NW,315,1.0,-999.0,84,0.00,,,0.00,Wunderground v.1.15,2013-08-20 04:25:00,
2013-08-19 21:30:00,66.5,61.5,29.88,NW,315,1.0,-999.0,84,0.00,,,0.00,Wunderground v.1.15,2013-08-20 04:30:00,
2013-08-19 21:35:00,66.3,61.3,29.88,NW,315,0.0,-999.0,84,0.00,,,0.00,Wunderground v.1.15,2013-08-20 04:35:00,
2013-08-19 21:40:00,66.3,61.3,29.88,NW,315,0.0,-999.0,84,0.00,,,0.00,Wunderground v.1.15,2013-08-20 04:40:00,
2013-08-19 21:45:00,66.2,61.2,29.88,NW,315,1.0,-999.0,84,0.00,,,0.00,Wunderground v.1.15,2013-08-20 04:45:00,
2013-08-19 21:50:00,66.2,61.2,29.88,NW,315,1.0,-999.0,84,0.00,,,0.00,Wunderground v.1.15,2013-08-20 04:50:00,
2013-08-19 21:55:00,66.0,61.4,29.89,NW,315,0.0,-999.0,85,0.00,,,0.00,Wunderground v.1.15,2013-08-20 04:55:00,
2013-08-19 22:00:00,66.0,61.4,29.89,NW,315,0.0,-999.0,85,0.00,,,0.00,Wunderground v.1.15,2013-08-20 05:00:00,
2013-08-19 22:05:00,65.8,61.2,29.89,NW,315,1.0,-999.0,85,0.00,,,0.00,Wunderground v.1.15,2013-08-20 05:05:00,
2013-08-19 22:10:00,65.8,61.2,29.89,NW,315,1.0,-999.0,85,0.00,,,0.00,Wunderground v.1.15,2013-08-20 05:10:00,
2013-08-19 22:15:00,65.7,61.1,29.89,NW,315,1.0,-999.0,85,0.00,,,0.00,Wunderground v.1.15,2013-08-20 05:15:00,
2013-08-19 22:20:00,65.7,61.1,29.89,NW,315,1.0,-999.0,85,0.00,,,0.00,Wunderground v.1.15,2013-08-20 05:20:00,
2013-08-19 22:25:00,65.6,61.0,29.89,NW,315,0.0,-999.0,85,0.00,,,0.00,Wunderground v.1.15,2013-08-20 05:25:00,
2013-08-19 22:30:00,65.6,61.0,29.89,NW,315,0.0,-999.0,85,0.00,,,0.00,Wunderground v.1.15,2013-08-20 05:30:00,
2013-08-19 22:35:00,65.5,60.9,29.89,NW,315,0.0,-999.0,85,0.00,,,0.00,Wunderground v.1.15,2013-08-20 05:35:00,
2013-08-19 22:40:00,65.5,60.9,29.89,NW,315,0.0,-999.0,85,0.00,,,0.00,Wunderground v.1.15,2013-08-20 05:40:00,
2013-08-19 22:45:00,65.4,60.8,29.89,NW,315,0.0,-999.0,85,0.00,,,0.00,Wunderground v.1.15,2013-08-20 05:45:00,
2013-08-19 22:50:00,65.4,60.8,29.89,NW,315,0.0,-999.0,85,0.00,,,0.00,Wunderground v.1.15,2013-08-20 05:50:00,
2013-08-19 22:55:00,65.2,60.6,29.89,N/A,-737280,0.0,-999.0,85,0.00,,,0.00,Wunderground v.1.15,2013-08-20 05:55:00,
2013-08-19 23:00:00,65.2,60.6,29.89,N/A,-737280,0.0,-999.0,85,0.00,,,0.00,Wunderground v.1.15,2013-08-20 06:00:00,
2013-08-19 23:05:00,64.9,60.6,29.90,N/A,-737280,0.0,-999.0,86,0.00,,,0.00,Wunderground v.1.15,2013-08-20 06:05:00,
2013-08-19 23:10:00,64.9,60.6,29.90,N/A,-737280,0.0,-999.0,86,0.00,,,0.00,Wunderground v.1.15,2013-08-20 06:10:00,
2013-08-19 23:15:00,64.6,60.3,29.89,N/A,-737280,0.0,-999.0,86,0.00,,,0.00,Wunderground v.1.15,2013-08-20 06:15:00,
2013-08-19 23:20:00,64.6,60.3,29.89,N/A,-737280,0.0,-999.0,86,0.00,,,0.00,Wunderground v.1.15,2013-08-20 06:20:00,
2013-08-19 23:25:00,64.4,60.1,29.89,N/A,-737280,0.0,-999.0,86,0.00,,,0.00,Wunderground v.1.15,2013-08-20 06:25:00,
2013-08-19 23:30:00,64.4,60.1,29.89,N/A,-737280,0.0,-999.0,86,0.00,,,0.00,Wunderground v.1.15,2013-08-20 06:30:00,
2013-08-19 23:35:00,64.1,59.8,29.89,N/A,-737280,0.0,-999.0,86,0.00,,,0.00,Wunderground v.1.15,2013-08-20 06:35:00,
2013-08-19 23:40:00,64.1,59.8,29.89,N/A,-737280,0.0,-999.0,86,0.00,,,0.00,Wunderground v.1.15,2013-08-20 06:40:00,
2013-08-19 23:45:00,64.1,60.2,29.89,NW,315,0.0,-999.0,87,0.00,,,0.00,Wunderground v.1.15,2013-08-20 06:45:00,
2013-08-19 23:50:00,64.1,60.2,29.89,NW,315,0.0,-999.0,87,0.00,,,0.00,Wunderground v.1.15,2013-08-20 06:50:00,
2013-08-19 23:55:00,64.2,60.2,29.89,NW,315,0.0,-999.0,87,0.00,,,0.00,Wunderground v.1.15,2013-08-20 06:55:00,